sensor_id;sensor_type;location;lat;lon;timestamp;temperature;humidity
23079;DHT22;11707;50.830;4.364;2022-11-20T00:01:13;4.40;99.90
23079;DHT22;11707;50.830;4.364;2022-11-20T00:03:39;4.50;99.90
23079;DHT22;11707;50.830;4.364;2022-11-20T00:06:07;4.60;99.90
23079;DHT22;11707;50.830;4.364;2022-11-20T00:08:33;4.60;99.90
23079;DHT22;11707;50.830;4.364;2022-11-20T00:11:25;4.60;99.90
23079;DHT22;11707;50.830;4.364;2022-11-20T00:13:51;4.70;99.90
23079;DHT22;11707;50.830;4.364;2022-11-20T00:16:20;4.70;99.90
23079;DHT22;11707;50.830;4.364;2022-11-20T00:18:46;4.60;99.90
23079;DHT22;11707;50.830;4.364;2022-11-20T00:21:16;4.60;99.90
23079;DHT22;11707;50.830;4.364;2022-11-20T00:23:42;4.70;99.90
23079;DHT22;11707;50.830;4.364;2022-11-20T00:26:13;4.80;99.90
23079;DHT22;11707;50.830;4.364;2022-11-20T00:28:40;4.80;99.90
23079;DHT22;11707;50.830;4.364;2022-11-20T00:31:09;4.70;99.90
23079;DHT22;11707;50.830;4.364;2022-11-20T00:33:35;4.70;99.90
23079;DHT22;11707;50.830;4.364;2022-11-20T00:36:09;4.80;99.90
23079;DHT22;11707;50.830;4.364;2022-11-20T00:38:35;4.70;99.90
23079;DHT22;11707;50.830;4.364;2022-11-20T00:41:04;4.80;99.90
23079;DHT22;11707;50.830;4.364;2022-11-20T00:43:30;4.70;99.90
23079;DHT22;11707;50.830;4.364;2022-11-20T00:46:08;4.70;99.90
23079;DHT22;11707;50.830;4.364;2022-11-20T00:48:34;4.70;99.90
23079;DHT22;11707;50.830;4.364;2022-11-20T00:51:00;4.70;99.90
23079;DHT22;11707;50.830;4.364;2022-11-20T00:53:27;4.50;99.90
23079;DHT22;11707;50.830;4.364;2022-11-20T00:56:01;4.60;99.90
23079;DHT22;11707;50.830;4.364;2022-11-20T00:58:35;4.50;99.90
23079;DHT22;11707;50.830;4.364;2022-11-20T01:01:13;4.70;99.90
23079;DHT22;11707;50.830;4.364;2022-11-20T01:03:41;4.50;99.90
23079;DHT22;11707;50.830;4.364;2022-11-20T01:06:15;4.40;99.90
23079;DHT22;11707;50.830;4.364;2022-11-20T01:08:41;4.30;99.90
23079;DHT22;11707;50.830;4.364;2022-11-20T01:11:13;4.20;99.90
23079;DHT22;11707;50.830;4.364;2022-11-20T01:13:40;4.00;99.90
23079;DHT22;11707;50.830;4.364;2022-11-20T01:18:34;4.00;99.90
23079;DHT22;11707;50.830;4.364;2022-11-20T01:21:12;4.00;99.90
23079;DHT22;11707;50.830;4.364;2022-11-20T01:23:40;4.00;99.90
23079;DHT22;11707;50.830;4.364;2022-11-20T01:26:10;4.00;99.90
23079;DHT22;11707;50.830;4.364;2022-11-20T01:28:37;4.20;99.90
23079;DHT22;11707;50.830;4.364;2022-11-20T01:31:25;4.20;99.90
23079;DHT22;11707;50.830;4.364;2022-11-20T01:33:54;4.30;99.90
23079;DHT22;11707;50.830;4.364;2022-11-20T01:36:22;4.40;99.90
23079;DHT22;11707;50.830;4.364;2022-11-20T01:38:50;4.30;99.90
23079;DHT22;11707;50.830;4.364;2022-11-20T01:41:16;4.40;99.90
23079;DHT22;11707;50.830;4.364;2022-11-20T01:44:00;4.40;99.90
23079;DHT22;11707;50.830;4.364;2022-11-20T01:46:26;4.50;99.90
23079;DHT22;11707;50.830;4.364;2022-11-20T01:51:42;4.60;99.90
23079;DHT22;11707;50.830;4.364;2022-11-20T01:54:16;4.70;99.90
23079;DHT22;11707;50.830;4.364;2022-11-20T01:56:44;4.70;99.90
23079;DHT22;11707;50.830;4.364;2022-11-20T01:59:14;4.80;99.90
23079;DHT22;11707;50.830;4.364;2022-11-20T02:01:41;4.70;99.90
23079;DHT22;11707;50.830;4.364;2022-11-20T02:04:08;4.70;99.90
23079;DHT22;11707;50.830;4.364;2022-11-20T02:06:47;4.70;99.90
23079;DHT22;11707;50.830;4.364;2022-11-20T02:09:15;4.70;99.90
23079;DHT22;11707;50.830;4.364;2022-11-20T02:11:41;4.70;99.90
23079;DHT22;11707;50.830;4.364;2022-11-20T02:14:07;4.70;99.90
23079;DHT22;11707;50.830;4.364;2022-11-20T02:16:44;4.60;99.90
23079;DHT22;11707;50.830;4.364;2022-11-20T02:19:31;4.70;99.90
23079;DHT22;11707;50.830;4.364;2022-11-20T02:22:05;4.80;99.90
23079;DHT22;11707;50.830;4.364;2022-11-20T02:24:33;4.70;99.90
23079;DHT22;11707;50.830;4.364;2022-11-20T02:27:04;4.70;99.90
23079;DHT22;11707;50.830;4.364;2022-11-20T02:30:00;4.40;99.90
23079;DHT22;11707;50.830;4.364;2022-11-20T02:32:29;4.30;99.90
23079;DHT22;11707;50.830;4.364;2022-11-20T02:34:55;4.30;99.90
23079;DHT22;11707;50.830;4.364;2022-11-20T02:37:23;4.30;99.90
23079;DHT22;11707;50.830;4.364;2022-11-20T02:39:50;4.30;99.90
23079;DHT22;11707;50.830;4.364;2022-11-20T02:42:17;4.30;99.90
23079;DHT22;11707;50.830;4.364;2022-11-20T02:44:43;4.20;99.90
23079;DHT22;11707;50.830;4.364;2022-11-20T02:47:09;4.20;99.90
23079;DHT22;11707;50.830;4.364;2022-11-20T02:49:34;4.10;99.90
23079;DHT22;11707;50.830;4.364;2022-11-20T02:52:00;4.10;99.90
23079;DHT22;11707;50.830;4.364;2022-11-20T02:54:26;4.10;99.90
23079;DHT22;11707;50.830;4.364;2022-11-20T02:56:52;4.20;99.90
23079;DHT22;11707;50.830;4.364;2022-11-20T02:59:18;4.30;99.90
23079;DHT22;11707;50.830;4.364;2022-11-20T03:01:43;4.30;99.90
23079;DHT22;11707;50.830;4.364;2022-11-20T03:04:09;4.10;99.90
23079;DHT22;11707;50.830;4.364;2022-11-20T03:06:35;4.20;99.90
23079;DHT22;11707;50.830;4.364;2022-11-20T03:09:01;4.30;99.90
23079;DHT22;11707;50.830;4.364;2022-11-20T03:11:26;4.30;99.90
23079;DHT22;11707;50.830;4.364;2022-11-20T03:13:52;4.30;99.90
23079;DHT22;11707;50.830;4.364;2022-11-20T03:16:20;4.30;99.90
23079;DHT22;11707;50.830;4.364;2022-11-20T03:18:46;4.40;99.90
23079;DHT22;11707;50.830;4.364;2022-11-20T03:21:12;4.40;99.90
23079;DHT22;11707;50.830;4.364;2022-11-20T03:23:38;4.50;99.90
23079;DHT22;11707;50.830;4.364;2022-11-20T03:26:22;4.40;99.90
23079;DHT22;11707;50.830;4.364;2022-11-20T03:28:56;4.40;99.90
23079;DHT22;11707;50.830;4.364;2022-11-20T03:31:25;4.40;99.90
23079;DHT22;11707;50.830;4.364;2022-11-20T03:33:51;4.40;99.90
23079;DHT22;11707;50.830;4.364;2022-11-20T03:36:19;4.50;99.90
23079;DHT22;11707;50.830;4.364;2022-11-20T03:38:45;4.40;99.90
23079;DHT22;11707;50.830;4.364;2022-11-20T03:41:21;4.50;99.90
23079;DHT22;11707;50.830;4.364;2022-11-20T03:43:52;4.40;99.90
23079;DHT22;11707;50.830;4.364;2022-11-20T03:46:18;4.30;99.90
23079;DHT22;11707;50.830;4.364;2022-11-20T03:48:43;4.50;99.90
23079;DHT22;11707;50.830;4.364;2022-11-20T03:51:18;4.40;99.90
23079;DHT22;11707;50.830;4.364;2022-11-20T03:53:45;4.50;99.90
23079;DHT22;11707;50.830;4.364;2022-11-20T03:56:12;4.60;99.90
23079;DHT22;11707;50.830;4.364;2022-11-20T03:58:39;4.40;99.90
23079;DHT22;11707;50.830;4.364;2022-11-20T04:01:13;4.60;99.90
23079;DHT22;11707;50.830;4.364;2022-11-20T04:03:41;4.60;99.90
23079;DHT22;11707;50.830;4.364;2022-11-20T04:06:13;4.60;99.90
23079;DHT22;11707;50.830;4.364;2022-11-20T04:08:39;4.70;99.90
23079;DHT22;11707;50.830;4.364;2022-11-20T04:11:10;4.80;99.90
23079;DHT22;11707;50.830;4.364;2022-11-20T04:13:36;4.70;99.90
23079;DHT22;11707;50.830;4.364;2022-11-20T04:16:02;4.70;99.90
23079;DHT22;11707;50.830;4.364;2022-11-20T04:18:28;4.70;99.90
23079;DHT22;11707;50.830;4.364;2022-11-20T04:20:53;4.80;99.90
23079;DHT22;11707;50.830;4.364;2022-11-20T04:23:19;4.70;99.90
23079;DHT22;11707;50.830;4.364;2022-11-20T04:25:44;4.80;99.90
23079;DHT22;11707;50.830;4.364;2022-11-20T04:28:10;4.80;99.90
23079;DHT22;11707;50.830;4.364;2022-11-20T04:30:36;4.60;99.90
23079;DHT22;11707;50.830;4.364;2022-11-20T04:33:01;4.60;99.90
23079;DHT22;11707;50.830;4.364;2022-11-20T04:35:27;4.60;99.90
23079;DHT22;11707;50.830;4.364;2022-11-20T04:37:53;4.60;99.90
23079;DHT22;11707;50.830;4.364;2022-11-20T04:40:18;4.90;99.90
23079;DHT22;11707;50.830;4.364;2022-11-20T04:42:44;5.20;99.90
23079;DHT22;11707;50.830;4.364;2022-11-20T04:45:10;5.30;99.90
23079;DHT22;11707;50.830;4.364;2022-11-20T04:47:35;5.30;99.90
23079;DHT22;11707;50.830;4.364;2022-11-20T04:50:01;5.30;99.90
23079;DHT22;11707;50.830;4.364;2022-11-20T04:52:26;5.50;99.90
23079;DHT22;11707;50.830;4.364;2022-11-20T04:54:52;5.50;99.90
23079;DHT22;11707;50.830;4.364;2022-11-20T04:57:19;5.60;99.90
23079;DHT22;11707;50.830;4.364;2022-11-20T04:59:44;5.50;99.90
23079;DHT22;11707;50.830;4.364;2022-11-20T05:02:11;5.50;99.90
23079;DHT22;11707;50.830;4.364;2022-11-20T05:04:37;5.30;99.90
23079;DHT22;11707;50.830;4.364;2022-11-20T05:07:03;5.20;99.90
23079;DHT22;11707;50.830;4.364;2022-11-20T05:09:29;5.40;99.90
23079;DHT22;11707;50.830;4.364;2022-11-20T05:11:55;5.40;99.90
23079;DHT22;11707;50.830;4.364;2022-11-20T05:14:20;5.50;99.90
23079;DHT22;11707;50.830;4.364;2022-11-20T05:16:46;5.50;99.90
23079;DHT22;11707;50.830;4.364;2022-11-20T05:19:12;5.70;99.90
23079;DHT22;11707;50.830;4.364;2022-11-20T05:21:37;5.80;99.90
23079;DHT22;11707;50.830;4.364;2022-11-20T05:24:03;5.90;99.90
23079;DHT22;11707;50.830;4.364;2022-11-20T05:26:30;6.00;99.90
23079;DHT22;11707;50.830;4.364;2022-11-20T05:28:55;6.00;99.90
23079;DHT22;11707;50.830;4.364;2022-11-20T05:31:23;5.80;99.90
23079;DHT22;11707;50.830;4.364;2022-11-20T05:33:49;5.90;99.90
23079;DHT22;11707;50.830;4.364;2022-11-20T05:36:16;6.00;99.90
23079;DHT22;11707;50.830;4.364;2022-11-20T05:38:42;6.10;99.90
23079;DHT22;11707;50.830;4.364;2022-11-20T05:41:11;6.00;99.90
23079;DHT22;11707;50.830;4.364;2022-11-20T05:43:39;5.60;99.90
23079;DHT22;11707;50.830;4.364;2022-11-20T05:46:06;5.50;99.90
23079;DHT22;11707;50.830;4.364;2022-11-20T05:48:33;5.30;99.90
23079;DHT22;11707;50.830;4.364;2022-11-20T05:51:01;5.30;99.90
23079;DHT22;11707;50.830;4.364;2022-11-20T05:53:28;5.20;99.90
23079;DHT22;11707;50.830;4.364;2022-11-20T05:55:58;5.30;99.90
23079;DHT22;11707;50.830;4.364;2022-11-20T05:58:24;5.10;99.90
23079;DHT22;11707;50.830;4.364;2022-11-20T06:00:50;5.00;99.90
23079;DHT22;11707;50.830;4.364;2022-11-20T06:03:16;5.20;99.90
23079;DHT22;11707;50.830;4.364;2022-11-20T06:05:41;5.40;99.90
23079;DHT22;11707;50.830;4.364;2022-11-20T06:08:07;5.40;99.90
23079;DHT22;11707;50.830;4.364;2022-11-20T06:10:32;5.40;99.90
23079;DHT22;11707;50.830;4.364;2022-11-20T06:12:58;5.40;99.90
23079;DHT22;11707;50.830;4.364;2022-11-20T06:15:24;5.50;99.90
23079;DHT22;11707;50.830;4.364;2022-11-20T06:17:54;5.50;99.90
23079;DHT22;11707;50.830;4.364;2022-11-20T06:20:20;5.60;99.90
23079;DHT22;11707;50.830;4.364;2022-11-20T06:22:46;5.60;99.90
23079;DHT22;11707;50.830;4.364;2022-11-20T06:25:12;5.60;99.90
23079;DHT22;11707;50.830;4.364;2022-11-20T06:27:38;5.60;99.90
23079;DHT22;11707;50.830;4.364;2022-11-20T06:30:04;5.40;99.90
23079;DHT22;11707;50.830;4.364;2022-11-20T06:32:30;5.60;99.90
23079;DHT22;11707;50.830;4.364;2022-11-20T06:34:56;5.80;99.90
23079;DHT22;11707;50.830;4.364;2022-11-20T06:37:22;5.80;99.90
23079;DHT22;11707;50.830;4.364;2022-11-20T06:39:48;5.80;99.90
23079;DHT22;11707;50.830;4.364;2022-11-20T06:42:13;5.90;99.90
23079;DHT22;11707;50.830;4.364;2022-11-20T06:44:39;5.80;99.90
23079;DHT22;11707;50.830;4.364;2022-11-20T06:47:04;5.40;99.90
23079;DHT22;11707;50.830;4.364;2022-11-20T06:49:30;5.30;99.90
23079;DHT22;11707;50.830;4.364;2022-11-20T06:51:56;5.30;99.90
23079;DHT22;11707;50.830;4.364;2022-11-20T06:54:22;5.30;99.90
23079;DHT22;11707;50.830;4.364;2022-11-20T06:56:48;5.60;99.90
23079;DHT22;11707;50.830;4.364;2022-11-20T06:59:14;5.80;99.90
23079;DHT22;11707;50.830;4.364;2022-11-20T07:01:40;5.90;99.90
23079;DHT22;11707;50.830;4.364;2022-11-20T07:04:06;5.70;99.90
23079;DHT22;11707;50.830;4.364;2022-11-20T07:06:32;5.60;99.90
23079;DHT22;11707;50.830;4.364;2022-11-20T07:08:57;5.60;99.90
23079;DHT22;11707;50.830;4.364;2022-11-20T07:11:23;5.70;99.90
23079;DHT22;11707;50.830;4.364;2022-11-20T07:13:50;5.70;99.90
23079;DHT22;11707;50.830;4.364;2022-11-20T07:16:16;5.70;99.90
23079;DHT22;11707;50.830;4.364;2022-11-20T07:18:41;5.70;99.90
23079;DHT22;11707;50.830;4.364;2022-11-20T07:21:09;5.70;99.90
23079;DHT22;11707;50.830;4.364;2022-11-20T07:23:36;5.90;99.90
23079;DHT22;11707;50.830;4.364;2022-11-20T07:26:06;6.10;99.90
23079;DHT22;11707;50.830;4.364;2022-11-20T07:28:33;6.10;99.90
23079;DHT22;11707;50.830;4.364;2022-11-20T07:30:59;6.00;99.90
23079;DHT22;11707;50.830;4.364;2022-11-20T07:33:25;6.10;99.90
23079;DHT22;11707;50.830;4.364;2022-11-20T07:35:50;6.00;99.90
23079;DHT22;11707;50.830;4.364;2022-11-20T07:38:16;6.00;99.90
23079;DHT22;11707;50.830;4.364;2022-11-20T07:40:42;5.90;99.90
23079;DHT22;11707;50.830;4.364;2022-11-20T07:43:07;6.20;99.90
23079;DHT22;11707;50.830;4.364;2022-11-20T07:45:33;6.20;99.90
23079;DHT22;11707;50.830;4.364;2022-11-20T07:47:59;6.30;99.90
23079;DHT22;11707;50.830;4.364;2022-11-20T07:50:25;6.30;99.90
23079;DHT22;11707;50.830;4.364;2022-11-20T07:52:50;6.50;99.90
23079;DHT22;11707;50.830;4.364;2022-11-20T07:55:17;6.50;99.90
23079;DHT22;11707;50.830;4.364;2022-11-20T07:57:43;6.50;99.90
23079;DHT22;11707;50.830;4.364;2022-11-20T08:00:10;6.40;99.90
23079;DHT22;11707;50.830;4.364;2022-11-20T08:02:40;6.20;99.90
23079;DHT22;11707;50.830;4.364;2022-11-20T08:05:07;6.40;99.90
23079;DHT22;11707;50.830;4.364;2022-11-20T08:07:40;6.50;99.90
23079;DHT22;11707;50.830;4.364;2022-11-20T08:10:08;6.70;99.90
23079;DHT22;11707;50.830;4.364;2022-11-20T08:12:34;6.80;99.90
23079;DHT22;11707;50.830;4.364;2022-11-20T08:15:19;6.80;99.90
23079;DHT22;11707;50.830;4.364;2022-11-20T08:17:44;6.70;99.90
23079;DHT22;11707;50.830;4.364;2022-11-20T08:20:10;6.70;99.90
23079;DHT22;11707;50.830;4.364;2022-11-20T08:22:36;6.80;99.90
23079;DHT22;11707;50.830;4.364;2022-11-20T08:25:02;6.80;99.90
23079;DHT22;11707;50.830;4.364;2022-11-20T08:27:28;6.80;99.90
23079;DHT22;11707;50.830;4.364;2022-11-20T08:29:53;6.70;99.90
23079;DHT22;11707;50.830;4.364;2022-11-20T08:32:19;6.80;99.90
23079;DHT22;11707;50.830;4.364;2022-11-20T08:34:45;6.80;99.90
23079;DHT22;11707;50.830;4.364;2022-11-20T08:37:11;7.00;99.90
23079;DHT22;11707;50.830;4.364;2022-11-20T08:39:37;7.10;99.90
23079;DHT22;11707;50.830;4.364;2022-11-20T08:42:06;7.10;99.90
23079;DHT22;11707;50.830;4.364;2022-11-20T08:44:32;7.00;99.90
23079;DHT22;11707;50.830;4.364;2022-11-20T08:46:58;6.80;99.90
23079;DHT22;11707;50.830;4.364;2022-11-20T08:49:24;6.80;99.90
23079;DHT22;11707;50.830;4.364;2022-11-20T08:51:49;6.70;99.90
23079;DHT22;11707;50.830;4.364;2022-11-20T08:54:19;6.80;99.90
23079;DHT22;11707;50.830;4.364;2022-11-20T08:56:47;6.80;99.90
23079;DHT22;11707;50.830;4.364;2022-11-20T08:59:13;6.70;99.90
23079;DHT22;11707;50.830;4.364;2022-11-20T09:01:38;6.80;99.90
23079;DHT22;11707;50.830;4.364;2022-11-20T09:04:04;6.90;99.90
23079;DHT22;11707;50.830;4.364;2022-11-20T09:06:30;6.90;99.90
23079;DHT22;11707;50.830;4.364;2022-11-20T09:08:56;6.90;99.90
23079;DHT22;11707;50.830;4.364;2022-11-20T09:11:22;7.00;99.90
23079;DHT22;11707;50.830;4.364;2022-11-20T09:13:48;6.90;99.90
23079;DHT22;11707;50.830;4.364;2022-11-20T09:16:14;6.90;99.90
23079;DHT22;11707;50.830;4.364;2022-11-20T09:18:40;6.90;99.90
23079;DHT22;11707;50.830;4.364;2022-11-20T09:21:10;6.90;99.90
23079;DHT22;11707;50.830;4.364;2022-11-20T09:23:37;6.90;99.90
23079;DHT22;11707;50.830;4.364;2022-11-20T09:26:09;7.00;99.90
23079;DHT22;11707;50.830;4.364;2022-11-20T09:28:35;6.80;99.90
23079;DHT22;11707;50.830;4.364;2022-11-20T09:31:08;6.90;99.90
23079;DHT22;11707;50.830;4.364;2022-11-20T09:33:35;7.00;99.90
23079;DHT22;11707;50.830;4.364;2022-11-20T09:36:01;7.10;99.90
23079;DHT22;11707;50.830;4.364;2022-11-20T09:38:27;7.10;99.90
23079;DHT22;11707;50.830;4.364;2022-11-20T09:41:03;7.20;99.90
23079;DHT22;11707;50.830;4.364;2022-11-20T09:46:26;7.30;99.90
23079;DHT22;11707;50.830;4.364;2022-11-20T09:51:44;7.30;99.90
23079;DHT22;11707;50.830;4.364;2022-11-20T09:54:20;7.50;99.90
23079;DHT22;11707;50.830;4.364;2022-11-20T09:56:56;7.60;99.90
23079;DHT22;11707;50.830;4.364;2022-11-20T09:59:39;7.60;99.90
23079;DHT22;11707;50.830;4.364;2022-11-20T10:04:55;7.80;99.90
23079;DHT22;11707;50.830;4.364;2022-11-20T10:10:04;8.20;99.90
23079;DHT22;11707;50.830;4.364;2022-11-20T10:13:02;8.00;99.90
23079;DHT22;11707;50.830;4.364;2022-11-20T10:15:59;8.10;99.90
23079;DHT22;11707;50.830;4.364;2022-11-20T10:21:21;8.20;99.90
23079;DHT22;11707;50.830;4.364;2022-11-20T10:24:24;8.10;99.90
23079;DHT22;11707;50.830;4.364;2022-11-20T10:27:44;8.30;99.90
23079;DHT22;11707;50.830;4.364;2022-11-20T10:30:19;8.40;99.90
23079;DHT22;11707;50.830;4.364;2022-11-20T10:32:59;8.40;99.90
23079;DHT22;11707;50.830;4.364;2022-11-20T10:35:35;8.30;99.90
23079;DHT22;11707;50.830;4.364;2022-11-20T10:38:19;8.40;99.90
23079;DHT22;11707;50.830;4.364;2022-11-20T10:40:50;8.50;99.90
23079;DHT22;11707;50.830;4.364;2022-11-20T10:43:33;8.60;99.90
23079;DHT22;11707;50.830;4.364;2022-11-20T10:46:06;8.70;99.90
23079;DHT22;11707;50.830;4.364;2022-11-20T10:48:34;8.80;99.90
23079;DHT22;11707;50.830;4.364;2022-11-20T10:56:30;9.10;99.90
23079;DHT22;11707;50.830;4.364;2022-11-20T10:59:38;9.00;99.90
23079;DHT22;11707;50.830;4.364;2022-11-20T11:04:51;9.20;99.90
23079;DHT22;11707;50.830;4.364;2022-11-20T11:07:35;9.00;99.90
23079;DHT22;11707;50.830;4.364;2022-11-20T11:10:01;9.20;99.90
23079;DHT22;11707;50.830;4.364;2022-11-20T11:12:28;9.30;99.90
23079;DHT22;11707;50.830;4.364;2022-11-20T11:14:56;9.50;99.90
23079;DHT22;11707;50.830;4.364;2022-11-20T11:17:28;9.50;99.90
23079;DHT22;11707;50.830;4.364;2022-11-20T11:20:17;9.50;99.90
23079;DHT22;11707;50.830;4.364;2022-11-20T11:25:33;9.60;99.90
23079;DHT22;11707;50.830;4.364;2022-11-20T11:28:03;9.50;99.90
23079;DHT22;11707;50.830;4.364;2022-11-20T11:30:30;9.50;99.90
23079;DHT22;11707;50.830;4.364;2022-11-20T11:33:05;9.30;99.90
23079;DHT22;11707;50.830;4.364;2022-11-20T11:35:31;9.30;99.90
23079;DHT22;11707;50.830;4.364;2022-11-20T11:38:06;9.30;99.90
23079;DHT22;11707;50.830;4.364;2022-11-20T11:40:35;9.20;99.90
23079;DHT22;11707;50.830;4.364;2022-11-20T11:43:05;9.10;99.90
23079;DHT22;11707;50.830;4.364;2022-11-20T11:45:55;8.90;99.90
23079;DHT22;11707;50.830;4.364;2022-11-20T11:48:21;8.70;99.90
23079;DHT22;11707;50.830;4.364;2022-11-20T11:50:50;8.70;99.90
23079;DHT22;11707;50.830;4.364;2022-11-20T11:53:19;8.60;99.90
23079;DHT22;11707;50.830;4.364;2022-11-20T11:55:48;8.50;99.90
23079;DHT22;11707;50.830;4.364;2022-11-20T11:58:17;8.50;99.90
23079;DHT22;11707;50.830;4.364;2022-11-20T12:01:00;8.50;99.90
23079;DHT22;11707;50.830;4.364;2022-11-20T12:03:38;8.60;99.90
23079;DHT22;11707;50.830;4.364;2022-11-20T12:06:11;8.50;99.90
23079;DHT22;11707;50.830;4.364;2022-11-20T12:16:12;8.40;99.90
23079;DHT22;11707;50.830;4.364;2022-11-20T12:18:40;8.30;99.90
23079;DHT22;11707;50.830;4.364;2022-11-20T12:21:19;8.30;99.90
23079;DHT22;11707;50.830;4.364;2022-11-20T12:39:49;8.00;99.90
23079;DHT22;11707;50.830;4.364;2022-11-20T12:51:47;8.10;99.90
23079;DHT22;11707;50.830;4.364;2022-11-20T12:54:45;8.10;99.90
23079;DHT22;11707;50.830;4.364;2022-11-20T12:57:29;8.10;99.90
23079;DHT22;11707;50.830;4.364;2022-11-20T13:00:09;8.10;99.90
23079;DHT22;11707;50.830;4.364;2022-11-20T13:05:21;8.20;99.90
23079;DHT22;11707;50.830;4.364;2022-11-20T13:07:52;8.10;99.90
23079;DHT22;11707;50.830;4.364;2022-11-20T13:10:38;8.20;99.90
23079;DHT22;11707;50.830;4.364;2022-11-20T13:15:50;8.00;99.90
23079;DHT22;11707;50.830;4.364;2022-11-20T13:18:19;7.90;99.90
23079;DHT22;11707;50.830;4.364;2022-11-20T13:20:46;7.90;99.90
23079;DHT22;11707;50.830;4.364;2022-11-20T13:23:24;7.90;99.90
23079;DHT22;11707;50.830;4.364;2022-11-20T13:25:50;7.90;99.90
23079;DHT22;11707;50.830;4.364;2022-11-20T13:30:54;7.90;99.90
23079;DHT22;11707;50.830;4.364;2022-11-20T13:33:30;8.00;99.90
23079;DHT22;11707;50.830;4.364;2022-11-20T13:35:58;7.90;99.90
23079;DHT22;11707;50.830;4.364;2022-11-20T13:38:24;7.90;99.90
23079;DHT22;11707;50.830;4.364;2022-11-20T13:40:58;7.90;99.90
23079;DHT22;11707;50.830;4.364;2022-11-20T13:46:07;8.10;99.90
23079;DHT22;11707;50.830;4.364;2022-11-20T13:48:38;8.00;99.90
23079;DHT22;11707;50.830;4.364;2022-11-20T13:51:07;8.10;99.90
23079;DHT22;11707;50.830;4.364;2022-11-20T13:54:03;8.10;99.90
23079;DHT22;11707;50.830;4.364;2022-11-20T13:59:40;8.10;99.90
23079;DHT22;11707;50.830;4.364;2022-11-20T14:02:16;8.10;99.90
23079;DHT22;11707;50.830;4.364;2022-11-20T14:04:50;8.10;99.90
23079;DHT22;11707;50.830;4.364;2022-11-20T14:07:22;8.20;99.90
23079;DHT22;11707;50.830;4.364;2022-11-20T14:09:54;8.10;99.90
23079;DHT22;11707;50.830;4.364;2022-11-20T14:12:27;8.20;99.90
23079;DHT22;11707;50.830;4.364;2022-11-20T14:14:54;8.20;99.90
23079;DHT22;11707;50.830;4.364;2022-11-20T14:17:22;8.20;99.90
23079;DHT22;11707;50.830;4.364;2022-11-20T14:19:51;8.20;99.90
23079;DHT22;11707;50.830;4.364;2022-11-20T14:22:22;8.30;99.90
23079;DHT22;11707;50.830;4.364;2022-11-20T14:25:00;8.40;99.90
23079;DHT22;11707;50.830;4.364;2022-11-20T14:27:27;8.40;99.90
23079;DHT22;11707;50.830;4.364;2022-11-20T14:29:53;8.50;99.90
23079;DHT22;11707;50.830;4.364;2022-11-20T14:32:20;8.50;99.90
23079;DHT22;11707;50.830;4.364;2022-11-20T14:34:49;8.50;99.90
23079;DHT22;11707;50.830;4.364;2022-11-20T14:37:21;8.50;99.90
23079;DHT22;11707;50.830;4.364;2022-11-20T14:39:53;8.40;99.90
23079;DHT22;11707;50.830;4.364;2022-11-20T14:42:24;8.40;99.90
23079;DHT22;11707;50.830;4.364;2022-11-20T14:44:52;8.40;99.90
23079;DHT22;11707;50.830;4.364;2022-11-20T14:47:23;8.50;99.90
23079;DHT22;11707;50.830;4.364;2022-11-20T14:49:51;8.50;99.90
23079;DHT22;11707;50.830;4.364;2022-11-20T14:52:22;8.50;99.90
23079;DHT22;11707;50.830;4.364;2022-11-20T14:54:51;8.50;99.90
23079;DHT22;11707;50.830;4.364;2022-11-20T14:57:24;8.40;99.90
23079;DHT22;11707;50.830;4.364;2022-11-20T14:59:49;8.40;99.90
23079;DHT22;11707;50.830;4.364;2022-11-20T15:02:16;8.40;99.90
23079;DHT22;11707;50.830;4.364;2022-11-20T15:04:50;8.30;99.90
23079;DHT22;11707;50.830;4.364;2022-11-20T15:07:29;8.40;99.90
23079;DHT22;11707;50.830;4.364;2022-11-20T15:10:08;8.40;99.90
23079;DHT22;11707;50.830;4.364;2022-11-20T15:12:38;8.40;99.90
23079;DHT22;11707;50.830;4.364;2022-11-20T15:15:06;8.40;99.90
23079;DHT22;11707;50.830;4.364;2022-11-20T15:17:37;8.40;99.90
23079;DHT22;11707;50.830;4.364;2022-11-20T15:20:13;8.40;99.90
23079;DHT22;11707;50.830;4.364;2022-11-20T15:22:39;8.40;99.90
23079;DHT22;11707;50.830;4.364;2022-11-20T15:25:12;8.50;99.90
23079;DHT22;11707;50.830;4.364;2022-11-20T15:27:38;8.50;99.90
23079;DHT22;11707;50.830;4.364;2022-11-20T15:30:34;8.50;99.90
23079;DHT22;11707;50.830;4.364;2022-11-20T15:32:59;8.50;99.90
23079;DHT22;11707;50.830;4.364;2022-11-20T15:35:25;8.50;99.90
23079;DHT22;11707;50.830;4.364;2022-11-20T15:37:51;8.50;99.90
23079;DHT22;11707;50.830;4.364;2022-11-20T15:40:17;8.50;99.90
23079;DHT22;11707;50.830;4.364;2022-11-20T15:42:43;8.50;99.90
23079;DHT22;11707;50.830;4.364;2022-11-20T15:45:30;8.60;99.90
23079;DHT22;11707;50.830;4.364;2022-11-20T15:47:56;8.70;99.90
23079;DHT22;11707;50.830;4.364;2022-11-20T15:50:27;8.70;99.90
23079;DHT22;11707;50.830;4.364;2022-11-20T15:52:54;8.70;99.90
23079;DHT22;11707;50.830;4.364;2022-11-20T15:55:20;8.70;99.90
23079;DHT22;11707;50.830;4.364;2022-11-20T15:57:46;8.70;99.90
23079;DHT22;11707;50.830;4.364;2022-11-20T16:00:12;8.70;99.90
23079;DHT22;11707;50.830;4.364;2022-11-20T16:02:38;8.70;99.90
23079;DHT22;11707;50.830;4.364;2022-11-20T16:05:11;8.80;99.90
23079;DHT22;11707;50.830;4.364;2022-11-20T16:07:37;8.90;99.90
23079;DHT22;11707;50.830;4.364;2022-11-20T16:10:04;8.90;99.90
23079;DHT22;11707;50.830;4.364;2022-11-20T16:12:30;8.90;99.90
23079;DHT22;11707;50.830;4.364;2022-11-20T16:15:14;8.90;99.90
23079;DHT22;11707;50.830;4.364;2022-11-20T16:17:59;8.90;99.90
23079;DHT22;11707;50.830;4.364;2022-11-20T16:20:24;8.90;99.90
23079;DHT22;11707;50.830;4.364;2022-11-20T16:22:50;8.90;99.90
23079;DHT22;11707;50.830;4.364;2022-11-20T16:25:16;8.90;99.90
23079;DHT22;11707;50.830;4.364;2022-11-20T16:27:42;8.90;99.90
23079;DHT22;11707;50.830;4.364;2022-11-20T16:30:09;8.90;99.90
23079;DHT22;11707;50.830;4.364;2022-11-20T16:32:35;8.90;99.90
23079;DHT22;11707;50.830;4.364;2022-11-20T16:35:00;8.90;99.90
23079;DHT22;11707;50.830;4.364;2022-11-20T16:37:27;8.80;99.90
23079;DHT22;11707;50.830;4.364;2022-11-20T16:39:53;8.80;99.90
23079;DHT22;11707;50.830;4.364;2022-11-20T16:42:19;8.90;99.90
23079;DHT22;11707;50.830;4.364;2022-11-20T16:44:45;8.90;99.90
23079;DHT22;11707;50.830;4.364;2022-11-20T16:47:12;9.00;99.90
23079;DHT22;11707;50.830;4.364;2022-11-20T16:49:37;8.90;99.90
23079;DHT22;11707;50.830;4.364;2022-11-20T16:52:04;8.90;99.90
23079;DHT22;11707;50.830;4.364;2022-11-20T16:54:29;8.90;99.90
23079;DHT22;11707;50.830;4.364;2022-11-20T16:56:55;8.80;99.90
23079;DHT22;11707;50.830;4.364;2022-11-20T16:59:21;8.80;99.90
23079;DHT22;11707;50.830;4.364;2022-11-20T17:01:47;8.80;99.90
23079;DHT22;11707;50.830;4.364;2022-11-20T17:04:13;8.90;99.90
23079;DHT22;11707;50.830;4.364;2022-11-20T17:06:41;8.90;99.90
23079;DHT22;11707;50.830;4.364;2022-11-20T17:09:09;8.90;99.90
23079;DHT22;11707;50.830;4.364;2022-11-20T17:11:36;8.90;99.90
23079;DHT22;11707;50.830;4.364;2022-11-20T17:14:02;8.90;99.90
23079;DHT22;11707;50.830;4.364;2022-11-20T17:16:29;8.90;99.90